createdAt,value
2023-02-18T00:01:46.292Z,7.34
2023-02-18T00:04:49.103Z,7.71
2023-02-18T00:07:51.708Z,7.74
2023-02-18T00:10:54.418Z,7.83
2023-02-18T00:13:59.550Z,8.01
2023-02-18T00:17:02.109Z,8.05
2023-02-18T00:20:07.125Z,8.07
2023-02-18T00:23:09.707Z,8.12
2023-02-18T00:26:14.356Z,8.30
2023-02-18T00:29:16.933Z,8.35
2023-02-18T00:32:19.587Z,8.31
2023-02-18T00:35:22.311Z,8.35
2023-02-18T00:38:25.064Z,8.49
2023-02-18T00:41:29.145Z,8.48
2023-02-18T00:44:31.808Z,8.52
2023-02-18T00:47:34.597Z,8.56
2023-02-18T00:50:37.359Z,8.54
2023-02-18T00:53:40.389Z,8.64
2023-02-18T00:56:43.275Z,8.68
2023-02-18T00:59:46.243Z,8.74
2023-02-18T01:02:49.007Z,8.93
2023-02-18T01:05:52.232Z,8.97
2023-02-18T01:08:55.201Z,9.04
2023-02-18T01:11:57.915Z,9.05
2023-02-18T01:15:00.805Z,9.11
2023-02-18T01:18:03.764Z,9.13
2023-02-18T01:21:10.240Z,9.22
2023-02-18T01:24:12.748Z,9.36
2023-02-18T01:27:15.874Z,9.35
2023-02-18T01:30:18.853Z,9.44
2023-02-18T01:33:22.104Z,9.57
2023-02-18T01:36:24.684Z,9.63
2023-02-18T01:39:32.342Z,9.71
2023-02-18T01:42:35.003Z,9.79
2023-02-18T01:45:47.277Z,9.80
2023-02-18T01:48:59.111Z,9.72
2023-02-18T01:52:23.907Z,9.75
2023-02-18T01:55:27.255Z,9.79
2023-02-18T01:58:30.208Z,9.78
2023-02-18T02:01:32.941Z,9.74
2023-02-18T02:04:37.303Z,9.71
2023-02-18T02:07:42.116Z,9.60
2023-02-18T02:10:53.681Z,9.49
2023-02-18T02:14:15.148Z,9.28
2023-02-18T02:17:50.012Z,9.21
2023-02-18T02:21:02.080Z,9.13
2023-02-18T02:24:29.673Z,8.94
2023-02-18T02:27:58.457Z,8.83
2023-02-18T02:31:13.278Z,8.74
2023-02-18T02:34:24.934Z,8.74
2023-02-18T02:37:34.551Z,8.82
2023-02-18T02:41:13.833Z,8.76
2023-02-18T02:44:35.816Z,8.95
2023-02-18T02:48:02.309Z,9.02
2023-02-18T02:51:18.807Z,9.08
2023-02-18T02:54:27.096Z,9.07
2023-02-18T02:57:31.370Z,9.06
2023-02-18T03:01:01.916Z,9.06
2023-02-18T03:04:34.843Z,9.01
2023-02-18T03:07:52.445Z,9.07
2023-02-18T03:11:09.840Z,8.98
2023-02-18T03:14:48.985Z,8.94
2023-02-18T03:17:58.123Z,8.88
2023-02-18T03:21:07.587Z,8.89
2023-02-18T03:24:42.680Z,8.84
2023-02-18T03:27:55.477Z,8.84
2023-02-18T03:31:03.758Z,8.83
2023-02-18T03:34:14.722Z,8.90
2023-02-18T03:37:18.878Z,8.94
2023-02-18T03:40:25.278Z,8.96
2023-02-18T03:43:29.738Z,8.98
2023-02-18T03:46:33.043Z,8.98
2023-02-18T03:49:35.617Z,9.05
2023-02-18T03:52:38.456Z,8.94
2023-02-18T03:55:41.384Z,9.12
2023-02-18T03:58:44.289Z,9.08
2023-02-18T04:01:46.906Z,9.12
2023-02-18T04:04:49.774Z,9.12
2023-02-18T04:07:52.656Z,9.01
2023-02-18T04:10:55.240Z,9.12
2023-02-18T04:13:58.596Z,9.09
2023-02-18T04:17:01.615Z,9.14
2023-02-18T04:20:05.298Z,9.19
2023-02-18T04:23:08.046Z,9.14
2023-02-18T04:26:11.521Z,9.22
2023-02-18T04:29:14.260Z,9.24
2023-02-18T04:32:17.153Z,9.27
2023-02-18T04:35:19.828Z,9.23
2023-02-18T04:38:23.307Z,9.31
2023-02-18T04:41:26.046Z,9.34
2023-02-18T04:44:28.608Z,9.36
2023-02-18T04:47:31.671Z,9.31
2023-02-18T04:50:34.881Z,9.44
2023-02-18T04:53:37.565Z,9.33
2023-02-18T04:56:40.250Z,9.39
2023-02-18T04:59:42.893Z,9.35
2023-02-18T05:02:46.636Z,9.33
2023-02-18T05:05:49.714Z,9.32
2023-02-18T05:08:52.689Z,9.22
2023-02-18T05:11:55.589Z,9.09
2023-02-18T05:14:58.730Z,9.17
2023-02-18T05:18:01.461Z,9.17
2023-02-18T05:21:04.238Z,9.15
2023-02-18T05:24:07.354Z,9.04
2023-02-18T05:27:10.003Z,9.01
2023-02-18T05:30:13.402Z,9.02
2023-02-18T05:33:15.989Z,9.06
2023-02-18T05:36:19.601Z,8.89
2023-02-18T05:39:22.180Z,8.81
2023-02-18T05:42:24.934Z,8.73
2023-02-18T05:45:27.585Z,8.56
2023-02-18T05:48:30.356Z,8.52
2023-02-18T05:51:33.805Z,8.54
2023-02-18T05:54:37.579Z,8.51
2023-02-18T05:57:40.919Z,8.48
2023-02-18T06:00:46.892Z,8.37
2023-02-18T06:03:50.023Z,8.46
2023-02-18T06:06:52.897Z,8.47
2023-02-18T06:09:56.070Z,8.46
2023-02-18T06:12:58.754Z,8.43
2023-02-18T06:16:01.798Z,8.37
2023-02-18T06:19:04.714Z,8.44
2023-02-18T06:22:08.909Z,8.50
2023-02-18T06:25:12.114Z,8.41
2023-02-18T06:28:14.800Z,8.54
2023-02-18T06:31:19.855Z,8.62
2023-02-18T06:34:22.992Z,8.57
2023-02-18T06:37:26.496Z,8.43
2023-02-18T06:40:29.379Z,8.47
2023-02-18T06:43:32.935Z,8.44
2023-02-18T06:46:35.944Z,8.54
2023-02-18T06:49:39.428Z,8.71
2023-02-18T06:52:42.303Z,8.77
2023-02-18T06:55:45.700Z,8.81
2023-02-18T06:58:48.471Z,8.91
2023-02-18T07:01:51.284Z,9.05
2023-02-18T07:04:54.715Z,9.14
2023-02-18T07:07:57.752Z,9.21
2023-02-18T07:11:01.145Z,9.48
2023-02-18T07:14:03.846Z,9.53
2023-02-18T07:17:07.670Z,9.58
2023-02-18T07:20:11.303Z,9.73
2023-02-18T07:23:14.653Z,9.76
2023-02-18T07:26:17.632Z,9.70
2023-02-18T07:29:20.892Z,9.80
2023-02-18T07:32:24.025Z,9.84
2023-02-18T07:35:27.235Z,9.74
2023-02-18T07:38:31.568Z,9.77
2023-02-18T07:41:34.657Z,9.66
2023-02-18T07:44:38.344Z,9.72
2023-02-18T07:47:42.628Z,9.75
2023-02-18T07:50:46.473Z,9.85
2023-02-18T07:53:49.365Z,9.81
2023-02-18T07:56:53.618Z,9.88
2023-02-18T07:59:56.786Z,9.85
2023-02-18T08:03:00.196Z,9.57
2023-02-18T08:06:05.226Z,9.66
2023-02-18T08:09:08.709Z,9.56
2023-02-18T08:12:12.021Z,9.68
2023-02-18T08:15:15.594Z,9.75
2023-02-18T08:18:21.464Z,9.55
2023-02-18T08:21:26.624Z,9.64
2023-02-18T08:24:29.577Z,9.60
2023-02-18T08:27:33.128Z,9.54
2023-02-18T08:30:36.166Z,9.49
2023-02-18T08:33:40.094Z,9.42
2023-02-18T08:36:42.970Z,9.64
2023-02-18T08:39:46.012Z,9.50
2023-02-18T08:42:48.952Z,9.49
2023-02-18T08:45:51.683Z,9.81
2023-02-18T08:48:57.280Z,9.64
2023-02-18T08:52:00.244Z,9.42
2023-02-18T08:55:05.443Z,9.64
2023-02-18T08:58:08.954Z,9.69
2023-02-18T09:01:13.277Z,9.90
2023-02-18T09:04:17.394Z,9.88
2023-02-18T09:07:20.858Z,9.98
2023-02-18T09:10:23.983Z,9.97
2023-02-18T09:13:27.443Z,9.88
2023-02-18T09:16:30.507Z,10.03
2023-02-18T09:19:33.742Z,10.11
2023-02-18T09:22:36.621Z,10.25
2023-02-18T09:25:41.104Z,10.19
2023-02-18T09:28:44.270Z,10.00
2023-02-18T09:31:47.559Z,9.92
2023-02-18T09:34:50.440Z,9.92
2023-02-18T09:37:53.367Z,10.02
2023-02-18T09:40:58.504Z,10.27
2023-02-18T09:44:04.235Z,10.14
2023-02-18T09:47:11.090Z,10.18
2023-02-18T09:50:23.686Z,10.07
2023-02-18T09:53:27.097Z,9.93
2023-02-18T09:56:33.330Z,10.22
2023-02-18T09:59:36.579Z,10.44
2023-02-18T10:02:41.568Z,10.50
2023-02-18T10:05:58.394Z,10.71
2023-02-18T10:09:04.942Z,10.71
2023-02-18T10:12:16.208Z,10.72
2023-02-18T10:15:25.884Z,10.90
2023-02-18T10:18:45.340Z,11.13
2023-02-18T10:21:49.098Z,11.10
2023-02-18T10:24:54.960Z,11.18
2023-02-18T10:27:59.365Z,11.24
2023-02-18T10:31:19.524Z,11.53
2023-02-18T10:34:43.726Z,11.73
2023-02-18T10:38:04.831Z,11.57
2023-02-18T10:41:19.862Z,11.70
2023-02-18T10:44:54.770Z,11.70
2023-02-18T10:48:07.151Z,11.74
2023-02-18T10:51:18.025Z,11.98
2023-02-18T10:54:25.309Z,12.09
2023-02-18T10:57:28.628Z,12.23
2023-02-18T11:00:36.232Z,12.17
2023-02-18T11:03:48.167Z,12.18
2023-02-18T11:06:54.185Z,12.24
2023-02-18T11:10:00.434Z,12.24
2023-02-18T11:13:08.133Z,12.23
2023-02-18T11:16:12.585Z,12.11
2023-02-18T11:19:38.468Z,12.00
2023-02-18T11:22:42.429Z,11.82
2023-02-18T11:25:54.761Z,11.77
2023-02-18T11:29:15.494Z,11.58
2023-02-18T11:32:18.845Z,11.34
2023-02-18T11:35:25.108Z,11.51
2023-02-18T11:38:55.860Z,11.39
2023-02-18T11:42:04.500Z,11.26
2023-02-18T11:45:30.791Z,11.15
2023-02-18T11:48:33.698Z,11.18
2023-02-18T11:51:40.527Z,11.01
2023-02-18T11:54:44.410Z,10.97
2023-02-18T11:57:55.900Z,10.94
2023-02-18T12:00:59.795Z,10.72
2023-02-18T12:04:27.852Z,10.67
2023-02-18T12:07:50.782Z,10.74
2023-02-18T12:10:55.939Z,10.67
2023-02-18T12:13:59.423Z,10.86
2023-02-18T12:17:17.900Z,10.86
2023-02-18T12:20:23.780Z,10.89
2023-02-18T12:23:39.205Z,10.94
2023-02-18T12:27:03.509Z,11.03
2023-02-18T12:30:33.412Z,11.01
2023-02-18T12:34:02.195Z,10.94
2023-02-18T12:37:29.914Z,10.97
2023-02-18T12:40:41.253Z,10.77
2023-02-18T12:43:59.159Z,10.80
2023-02-18T12:47:17.254Z,10.83
2023-02-18T12:50:52.369Z,10.93
2023-02-18T12:54:00.797Z,10.80
2023-02-18T12:57:16.988Z,11.05
2023-02-18T13:00:47.758Z,10.87
2023-02-18T13:04:09.204Z,10.82
2023-02-18T13:07:21.023Z,10.94
2023-02-18T13:10:38.285Z,10.93
2023-02-18T13:13:54.540Z,11.00
2023-02-18T13:16:59.717Z,11.01
2023-02-18T13:20:15.197Z,10.89
2023-02-18T13:23:23.907Z,10.95
2023-02-18T13:26:27.805Z,11.04
2023-02-18T13:29:35.714Z,11.07
2023-02-18T13:32:41.760Z,11.10
2023-02-18T13:36:03.451Z,11.03
2023-02-18T13:39:08.897Z,11.04
2023-02-18T13:42:17.994Z,10.97
2023-02-18T13:45:30.721Z,10.97
2023-02-18T13:48:40.787Z,10.89
2023-02-18T13:51:49.193Z,10.86
2023-02-18T13:54:52.270Z,10.91
2023-02-18T13:57:56.285Z,10.97
2023-02-18T14:01:11.444Z,10.91
2023-02-18T14:04:56.355Z,10.95
2023-02-18T14:08:19.282Z,10.89
2023-02-18T14:11:22.138Z,11.00
2023-02-18T14:14:28.035Z,10.95
2023-02-18T14:17:34.743Z,11.05
2023-02-18T14:20:37.898Z,11.01
2023-02-18T14:23:56.939Z,10.96
2023-02-18T14:27:09.933Z,11.07
2023-02-18T14:30:42.247Z,11.03
2023-02-18T14:34:23.196Z,11.14
2023-02-18T14:37:41.777Z,11.13
2023-02-18T14:40:53.910Z,11.13
2023-02-18T14:44:22.555Z,11.14
2023-02-18T14:47:34.871Z,11.09
2023-02-18T14:50:39.618Z,10.95
2023-02-18T14:53:44.918Z,11.04
2023-02-18T14:56:56.251Z,11.06
2023-02-18T15:00:03.792Z,11.20
2023-02-18T15:03:15.077Z,11.02
2023-02-18T15:06:26.070Z,11.15
2023-02-18T15:09:29.047Z,11.18
2023-02-18T15:12:32.020Z,11.12
2023-02-18T15:15:36.292Z,11.09
2023-02-18T15:18:42.615Z,10.99
2023-02-18T15:21:48.011Z,10.97
2023-02-18T15:24:53.875Z,10.99
2023-02-18T15:27:56.845Z,11.01
2023-02-18T15:31:01.966Z,11.07
2023-02-18T15:34:30.182Z,11.01
2023-02-18T15:37:33.207Z,11.01
2023-02-18T15:40:38.088Z,10.99
2023-02-18T15:43:54.454Z,11.06
2023-02-18T15:47:01.777Z,11.02
2023-02-18T15:50:05.040Z,10.97
2023-02-18T15:53:13.226Z,11.08
2023-02-18T15:56:21.796Z,11.05
2023-02-18T15:59:35.383Z,11.04
2023-02-18T16:02:51.595Z,11.08
2023-02-18T16:06:10.018Z,11.15
2023-02-18T16:09:18.567Z,10.96
2023-02-18T16:12:28.803Z,11.01
2023-02-18T16:15:42.610Z,11.07
2023-02-18T16:18:45.866Z,11.16
2023-02-18T16:21:48.491Z,11.13
2023-02-18T16:24:56.688Z,11.17
2023-02-18T16:27:59.444Z,11.18
2023-02-18T16:31:02.142Z,11.11
2023-02-18T16:34:05.424Z,11.26
2023-02-18T16:37:28.494Z,11.23
2023-02-18T16:40:35.950Z,11.21
2023-02-18T16:43:39.904Z,11.25
2023-02-18T16:46:43.231Z,11.31
2023-02-18T16:49:48.367Z,11.33
2023-02-18T16:52:51.798Z,11.22
2023-02-18T16:55:54.963Z,11.30
2023-02-18T16:58:58.644Z,11.29
2023-02-18T17:02:01.834Z,11.30
2023-02-18T17:05:09.831Z,11.35
2023-02-18T17:08:23.577Z,11.39
2023-02-18T17:11:31.848Z,11.25
2023-02-18T17:14:34.935Z,11.28
2023-02-18T17:17:38.252Z,11.23
2023-02-18T17:20:41.653Z,11.33
2023-02-18T17:23:46.206Z,11.28
2023-02-18T17:26:49.773Z,11.19
2023-02-18T17:29:53.325Z,11.17
2023-02-18T17:33:03.289Z,11.17
2023-02-18T17:36:07.019Z,11.24
2023-02-18T17:39:14.672Z,11.23
2023-02-18T17:42:17.671Z,11.24
2023-02-18T17:45:24.297Z,11.29
2023-02-18T17:48:28.725Z,11.37
2023-02-18T17:51:32.512Z,11.30
2023-02-18T17:54:35.421Z,11.35
2023-02-18T17:57:38.702Z,11.37
2023-02-18T18:00:47.360Z,11.23
2023-02-18T18:03:50.322Z,11.18
2023-02-18T18:06:53.267Z,11.24
2023-02-18T18:09:56.146Z,11.08
2023-02-18T18:13:00.647Z,10.96
2023-02-18T18:16:03.612Z,10.84
2023-02-18T18:19:06.538Z,10.85
2023-02-18T18:22:10.497Z,10.68
2023-02-18T18:25:29.356Z,10.62
2023-02-18T18:28:33.375Z,10.57
2023-02-18T18:31:38.064Z,10.53
2023-02-18T18:34:40.837Z,10.57
2023-02-18T18:37:43.862Z,10.57
2023-02-18T18:40:48.197Z,10.57
2023-02-18T18:43:51.396Z,10.54
2023-02-18T18:46:54.218Z,10.43
2023-02-18T18:49:58.598Z,10.57
2023-02-18T18:53:01.664Z,10.57
2023-02-18T18:56:08.855Z,10.57
2023-02-18T18:59:18.504Z,10.53
2023-02-18T19:02:22.293Z,10.52
2023-02-18T19:05:31.934Z,10.55
2023-02-18T19:08:37.570Z,10.65
2023-02-18T19:11:42.495Z,10.67
2023-02-18T19:14:45.834Z,10.69
2023-02-18T19:17:54.035Z,10.74
2023-02-18T19:20:59.795Z,10.72
2023-02-18T19:24:04.474Z,10.69
2023-02-18T19:27:10.743Z,10.65
2023-02-18T19:30:20.301Z,10.74
2023-02-18T19:33:25.202Z,10.75
2023-02-18T19:36:31.042Z,10.83
2023-02-18T19:39:35.722Z,10.74
2023-02-18T19:42:38.798Z,10.71
2023-02-18T19:45:43.873Z,10.67
2023-02-18T19:48:52.716Z,10.75
2023-02-18T19:51:56.823Z,10.66
2023-02-18T19:55:00.558Z,10.70
2023-02-18T19:58:03.486Z,10.74
2023-02-18T20:01:15.040Z,10.73
2023-02-18T20:04:18.020Z,10.77
2023-02-18T20:07:22.229Z,10.71
2023-02-18T20:10:26.019Z,10.72
2023-02-18T20:13:29.117Z,10.70
2023-02-18T20:16:31.942Z,10.69
2023-02-18T20:19:35.367Z,10.73
2023-02-18T20:22:38.493Z,10.73
2023-02-18T20:25:44.307Z,10.71
2023-02-18T20:28:48.029Z,10.72
2023-02-18T20:31:51.363Z,10.59
2023-02-18T20:34:54.366Z,10.62
2023-02-18T20:37:57.763Z,10.71
2023-02-18T20:41:15.064Z,10.63
2023-02-18T20:44:19.860Z,10.64
2023-02-18T20:47:23.001Z,10.57
2023-02-18T20:50:25.875Z,10.54
2023-02-18T20:53:31.762Z,10.57
2023-02-18T20:56:34.997Z,10.63
2023-02-18T20:59:40.315Z,10.50
2023-02-18T21:02:43.195Z,10.54
2023-02-18T21:05:46.032Z,10.52
2023-02-18T21:08:50.526Z,10.42
2023-02-18T21:11:53.701Z,10.51
2023-02-18T21:14:56.502Z,10.44
2023-02-18T21:18:00.454Z,10.44
2023-02-18T21:21:05.792Z,10.47
2023-02-18T21:24:09.653Z,10.52
2023-02-18T21:27:12.605Z,10.41
2023-02-18T21:30:15.804Z,10.41
2023-02-18T21:33:18.704Z,10.29
2023-02-18T21:36:22.406Z,10.31
2023-02-18T21:39:25.169Z,10.35
2023-02-18T21:42:28.485Z,10.31
2023-02-18T21:45:31.602Z,10.33
2023-02-18T21:48:52.993Z,10.26
2023-02-18T21:52:08.608Z,10.23
2023-02-18T21:55:11.481Z,10.25
2023-02-18T21:58:14.448Z,10.23
2023-02-18T22:01:17.811Z,10.19
2023-02-18T22:04:20.934Z,10.23
2023-02-18T22:07:26.647Z,10.23
2023-02-18T22:10:29.483Z,10.18
2023-02-18T22:13:32.587Z,10.14
2023-02-18T22:16:35.516Z,10.13
2023-02-18T22:19:38.578Z,10.09
2023-02-18T22:22:41.303Z,10.07
2023-02-18T22:25:44.283Z,10.06
2023-02-18T22:28:54.745Z,10.02
2023-02-18T22:31:57.454Z,9.99
2023-02-18T22:35:00.202Z,9.97
2023-02-18T22:38:03.180Z,9.91
2023-02-18T22:41:11.380Z,9.84
2023-02-18T22:44:15.494Z,9.82
2023-02-18T22:47:18.084Z,9.79
2023-02-18T22:50:21.013Z,9.81
2023-02-18T22:53:24.171Z,9.82
2023-02-18T22:56:28.795Z,9.80
2023-02-18T22:59:31.937Z,9.76
2023-02-18T23:02:34.714Z,9.76
2023-02-18T23:05:37.425Z,9.72
2023-02-18T23:08:40.235Z,9.68
2023-02-18T23:11:43.453Z,9.67
2023-02-18T23:14:46.434Z,9.61
2023-02-18T23:17:49.496Z,9.62
2023-02-18T23:21:11.514Z,9.63
2023-02-18T23:24:14.456Z,9.61
2023-02-18T23:27:17.546Z,9.47
2023-02-18T23:30:20.219Z,9.49
2023-02-18T23:33:22.898Z,9.52
2023-02-18T23:36:28.437Z,9.41
2023-02-18T23:39:31.222Z,9.43
2023-02-18T23:42:33.986Z,9.41
2023-02-18T23:45:36.764Z,9.35
2023-02-18T23:48:40.114Z,9.26
2023-02-18T23:51:42.692Z,9.33
2023-02-18T23:54:45.474Z,9.23
2023-02-18T23:57:48.871Z,9.25
